sensor_id;sensor_type;location;lat;lon;timestamp;temperature;humidity
83102;SHT31;72973;51.784;4.660;2024-01-30T00:00:51;9.78;80.76
83102;SHT31;72973;51.784;4.660;2024-01-30T00:03:18;9.84;80.68
83102;SHT31;72973;51.784;4.660;2024-01-30T00:05:44;9.88;80.47
83102;SHT31;72973;51.784;4.660;2024-01-30T00:08:11;9.93;80.42
83102;SHT31;72973;51.784;4.660;2024-01-30T00:10:38;9.98;80.04
83102;SHT31;72973;51.784;4.660;2024-01-30T00:13:04;10.02;79.93
83102;SHT31;72973;51.784;4.660;2024-01-30T00:15:30;10.02;79.91
83102;SHT31;72973;51.784;4.660;2024-01-30T00:17:57;10.06;79.52
83102;SHT31;72973;51.784;4.660;2024-01-30T00:20:23;10.11;79.60
83102;SHT31;72973;51.784;4.660;2024-01-30T00:22:50;10.11;79.59
83102;SHT31;72973;51.784;4.660;2024-01-30T00:25:20;10.12;79.42
83102;SHT31;72973;51.784;4.660;2024-01-30T00:27:46;10.14;79.37
83102;SHT31;72973;51.784;4.660;2024-01-30T00:30:13;10.08;79.43
83102;SHT31;72973;51.784;4.660;2024-01-30T00:32:39;10.12;79.38
83102;SHT31;72973;51.784;4.660;2024-01-30T00:35:06;10.11;79.27
83102;SHT31;72973;51.784;4.660;2024-01-30T00:37:33;10.15;79.26
83102;SHT31;72973;51.784;4.660;2024-01-30T00:39:59;10.18;79.25
83102;SHT31;72973;51.784;4.660;2024-01-30T00:42:26;10.14;79.13
83102;SHT31;72973;51.784;4.660;2024-01-30T00:44:52;10.16;79.22
83102;SHT31;72973;51.784;4.660;2024-01-30T00:47:19;10.15;79.28
83102;SHT31;72973;51.784;4.660;2024-01-30T00:49:45;10.18;79.17
83102;SHT31;72973;51.784;4.660;2024-01-30T00:52:12;10.19;79.14
83102;SHT31;72973;51.784;4.660;2024-01-30T00:54:38;10.22;79.03
83102;SHT31;72973;51.784;4.660;2024-01-30T00:57:11;10.26;79.05
83102;SHT31;72973;51.784;4.660;2024-01-30T00:59:37;10.23;79.05
83102;SHT31;72973;51.784;4.660;2024-01-30T01:02:04;10.23;79.15
83102;SHT31;72973;51.784;4.660;2024-01-30T01:04:32;10.25;79.11
83102;SHT31;72973;51.784;4.660;2024-01-30T01:06:59;10.28;78.98
83102;SHT31;72973;51.784;4.660;2024-01-30T01:09:26;10.25;79.13
83102;SHT31;72973;51.784;4.660;2024-01-30T01:11:59;10.23;79.01
83102;SHT31;72973;51.784;4.660;2024-01-30T01:14:25;10.29;78.92
83102;SHT31;72973;51.784;4.660;2024-01-30T01:16:52;10.31;78.81
83102;SHT31;72973;51.784;4.660;2024-01-30T01:19:18;10.31;78.86
83102;SHT31;72973;51.784;4.660;2024-01-30T01:21:45;10.26;78.92
83102;SHT31;72973;51.784;4.660;2024-01-30T01:24:11;10.29;79.09
83102;SHT31;72973;51.784;4.660;2024-01-30T01:26:38;10.23;79.14
83102;SHT31;72973;51.784;4.660;2024-01-30T01:29:06;10.28;79.07
83102;SHT31;72973;51.784;4.660;2024-01-30T01:31:36;10.25;79.03
83102;SHT31;72973;51.784;4.660;2024-01-30T01:34:10;10.28;79.01
83102;SHT31;72973;51.784;4.660;2024-01-30T01:36:37;10.35;78.90
83102;SHT31;72973;51.784;4.660;2024-01-30T01:39:03;10.41;78.63
83102;SHT31;72973;51.784;4.660;2024-01-30T01:41:33;10.38;78.73
83102;SHT31;72973;51.784;4.660;2024-01-30T01:44:00;10.41;78.78
83102;SHT31;72973;51.784;4.660;2024-01-30T01:46:27;10.32;78.69
83102;SHT31;72973;51.784;4.660;2024-01-30T01:48:56;10.29;78.90
83102;SHT31;72973;51.784;4.660;2024-01-30T01:51:26;10.25;79.11
83102;SHT31;72973;51.784;4.660;2024-01-30T01:53:57;10.26;79.07
83102;SHT31;72973;51.784;4.660;2024-01-30T01:56:26;10.14;79.37
83102;SHT31;72973;51.784;4.660;2024-01-30T01:58:55;10.19;79.25
83102;SHT31;72973;51.784;4.660;2024-01-30T02:01:23;10.21;79.22
83102;SHT31;72973;51.784;4.660;2024-01-30T02:03:52;10.06;79.62
83102;SHT31;72973;51.784;4.660;2024-01-30T02:06:19;10.09;79.49
83102;SHT31;72973;51.784;4.660;2024-01-30T02:08:46;10.02;79.70
83102;SHT31;72973;51.784;4.660;2024-01-30T02:11:12;9.95;79.77
83102;SHT31;72973;51.784;4.660;2024-01-30T02:13:41;9.97;79.70
83102;SHT31;72973;51.784;4.660;2024-01-30T02:16:07;9.99;79.65
83102;SHT31;72973;51.784;4.660;2024-01-30T02:18:34;9.87;80.22
83102;SHT31;72973;51.784;4.660;2024-01-30T02:21:06;9.95;79.85
83102;SHT31;72973;51.784;4.660;2024-01-30T02:23:33;9.87;80.15
83102;SHT31;72973;51.784;4.660;2024-01-30T02:26:00;9.91;79.99
83102;SHT31;72973;51.784;4.660;2024-01-30T02:28:27;9.98;79.77
83102;SHT31;72973;51.784;4.660;2024-01-30T02:30:55;9.97;79.85
83102;SHT31;72973;51.784;4.660;2024-01-30T02:33:22;9.99;79.89
83102;SHT31;72973;51.784;4.660;2024-01-30T02:35:49;10.05;79.74
83102;SHT31;72973;51.784;4.660;2024-01-30T02:38:15;10.05;79.72
83102;SHT31;72973;51.784;4.660;2024-01-30T02:40:42;10.04;79.75
83102;SHT31;72973;51.784;4.660;2024-01-30T02:43:09;10.06;79.77
83102;SHT31;72973;51.784;4.660;2024-01-30T02:45:35;10.11;79.43
83102;SHT31;72973;51.784;4.660;2024-01-30T02:48:05;10.16;79.35
83102;SHT31;72973;51.784;4.660;2024-01-30T02:50:32;10.16;79.27
83102;SHT31;72973;51.784;4.660;2024-01-30T02:52:58;10.18;79.46
83102;SHT31;72973;51.784;4.660;2024-01-30T02:55:24;10.18;79.35
83102;SHT31;72973;51.784;4.660;2024-01-30T02:57:51;10.15;79.38
83102;SHT31;72973;51.784;4.660;2024-01-30T03:00:18;10.18;79.30
83102;SHT31;72973;51.784;4.660;2024-01-30T03:02:46;10.18;79.29
83102;SHT31;72973;51.784;4.660;2024-01-30T03:05:12;10.12;79.43
83102;SHT31;72973;51.784;4.660;2024-01-30T03:07:39;10.14;79.31
83102;SHT31;72973;51.784;4.660;2024-01-30T03:10:05;10.04;79.53
83102;SHT31;72973;51.784;4.660;2024-01-30T03:12:35;9.99;79.76
83102;SHT31;72973;51.784;4.660;2024-01-30T03:15:01;10.02;79.74
83102;SHT31;72973;51.784;4.660;2024-01-30T03:17:28;10.08;79.51
83102;SHT31;72973;51.784;4.660;2024-01-30T03:19:54;10.09;79.62
83102;SHT31;72973;51.784;4.660;2024-01-30T03:22:21;10.14;79.49
83102;SHT31;72973;51.784;4.660;2024-01-30T03:24:47;10.15;79.44
83102;SHT31;72973;51.784;4.660;2024-01-30T03:27:14;10.15;79.54
83102;SHT31;72973;51.784;4.660;2024-01-30T03:29:40;10.16;79.48
83102;SHT31;72973;51.784;4.660;2024-01-30T03:32:07;10.16;79.44
83102;SHT31;72973;51.784;4.660;2024-01-30T03:34:33;10.14;79.63
83102;SHT31;72973;51.784;4.660;2024-01-30T03:37:00;10.21;79.54
83102;SHT31;72973;51.784;4.660;2024-01-30T03:39:26;10.28;79.42
83102;SHT31;72973;51.784;4.660;2024-01-30T03:41:53;10.32;79.06
83102;SHT31;72973;51.784;4.660;2024-01-30T03:44:22;10.28;79.21
83102;SHT31;72973;51.784;4.660;2024-01-30T03:46:49;10.31;79.20
83102;SHT31;72973;51.784;4.660;2024-01-30T03:49:16;10.29;79.16
83102;SHT31;72973;51.784;4.660;2024-01-30T03:51:42;10.33;79.04
83102;SHT31;72973;51.784;4.660;2024-01-30T03:54:08;10.33;79.06
83102;SHT31;72973;51.784;4.660;2024-01-30T03:56:35;10.29;79.26
83102;SHT31;72973;51.784;4.660;2024-01-30T03:59:02;10.26;79.31
83102;SHT31;72973;51.784;4.660;2024-01-30T04:01:29;10.21;79.46
83102;SHT31;72973;51.784;4.660;2024-01-30T04:03:55;10.23;79.34
83102;SHT31;72973;51.784;4.660;2024-01-30T04:06:21;10.22;79.46
83102;SHT31;72973;51.784;4.660;2024-01-30T04:08:48;10.22;79.46
83102;SHT31;72973;51.784;4.660;2024-01-30T04:11:15;10.26;79.37
83102;SHT31;72973;51.784;4.660;2024-01-30T04:13:44;10.22;79.54
83102;SHT31;72973;51.784;4.660;2024-01-30T04:16:20;10.23;79.49
83102;SHT31;72973;51.784;4.660;2024-01-30T04:18:47;10.25;79.48
83102;SHT31;72973;51.784;4.660;2024-01-30T04:21:14;10.25;79.54
83102;SHT31;72973;51.784;4.660;2024-01-30T04:23:41;10.32;79.25
83102;SHT31;72973;51.784;4.660;2024-01-30T04:26:08;10.36;79.34
83102;SHT31;72973;51.784;4.660;2024-01-30T04:28:34;10.46;78.86
83102;SHT31;72973;51.784;4.660;2024-01-30T04:31:01;10.50;78.87
83102;SHT31;72973;51.784;4.660;2024-01-30T04:33:27;10.45;79.08
83102;SHT31;72973;51.784;4.660;2024-01-30T04:35:54;10.55;78.90
83102;SHT31;72973;51.784;4.660;2024-01-30T04:38:20;10.57;78.65
83102;SHT31;72973;51.784;4.660;2024-01-30T04:40:47;10.42;79.15
83102;SHT31;72973;51.784;4.660;2024-01-30T04:43:13;10.42;79.18
83102;SHT31;72973;51.784;4.660;2024-01-30T04:45:41;10.49;79.16
83102;SHT31;72973;51.784;4.660;2024-01-30T04:48:07;10.50;78.92
83102;SHT31;72973;51.784;4.660;2024-01-30T04:50:34;10.53;79.13
83102;SHT31;72973;51.784;4.660;2024-01-30T04:53:00;10.57;78.91
83102;SHT31;72973;51.784;4.660;2024-01-30T04:55:26;10.61;78.69
83102;SHT31;72973;51.784;4.660;2024-01-30T04:57:53;10.63;78.63
83102;SHT31;72973;51.784;4.660;2024-01-30T05:00:20;10.57;78.75
83102;SHT31;72973;51.784;4.660;2024-01-30T05:02:46;10.64;78.76
83102;SHT31;72973;51.784;4.660;2024-01-30T05:05:13;10.67;78.53
83102;SHT31;72973;51.784;4.660;2024-01-30T05:07:41;10.63;78.76
83102;SHT31;72973;51.784;4.660;2024-01-30T05:10:07;10.63;78.82
83102;SHT31;72973;51.784;4.660;2024-01-30T05:12:34;10.59;78.81
83102;SHT31;72973;51.784;4.660;2024-01-30T05:15:01;10.69;78.73
83102;SHT31;72973;51.784;4.660;2024-01-30T05:17:27;10.69;78.49
83102;SHT31;72973;51.784;4.660;2024-01-30T05:19:54;10.70;78.52
83102;SHT31;72973;51.784;4.660;2024-01-30T05:22:23;10.64;78.70
83102;SHT31;72973;51.784;4.660;2024-01-30T05:24:49;10.59;78.80
83102;SHT31;72973;51.784;4.660;2024-01-30T05:27:15;10.60;78.89
83102;SHT31;72973;51.784;4.660;2024-01-30T05:29:42;10.61;79.06
83102;SHT31;72973;51.784;4.660;2024-01-30T05:32:09;10.64;78.92
83102;SHT31;72973;51.784;4.660;2024-01-30T05:34:36;10.66;78.96
83102;SHT31;72973;51.784;4.660;2024-01-30T05:37:03;10.63;78.92
83102;SHT31;72973;51.784;4.660;2024-01-30T05:39:30;10.66;78.76
83102;SHT31;72973;51.784;4.660;2024-01-30T05:41:59;10.63;78.97
83102;SHT31;72973;51.784;4.660;2024-01-30T05:44:26;10.66;78.89
83102;SHT31;72973;51.784;4.660;2024-01-30T05:46:52;10.66;78.95
83102;SHT31;72973;51.784;4.660;2024-01-30T05:49:20;10.66;79.13
83102;SHT31;72973;51.784;4.660;2024-01-30T05:51:46;10.66;79.12
83102;SHT31;72973;51.784;4.660;2024-01-30T05:54:12;10.66;79.12
83102;SHT31;72973;51.784;4.660;2024-01-30T05:56:39;10.67;79.15
83102;SHT31;72973;51.784;4.660;2024-01-30T05:59:05;10.60;79.30
83102;SHT31;72973;51.784;4.660;2024-01-30T06:01:32;10.70;79.32
83102;SHT31;72973;51.784;4.660;2024-01-30T06:03:58;10.64;79.30
83102;SHT31;72973;51.784;4.660;2024-01-30T06:06:25;10.66;79.31
83102;SHT31;72973;51.784;4.660;2024-01-30T06:08:51;10.69;79.45
83102;SHT31;72973;51.784;4.660;2024-01-30T06:11:17;10.70;79.21
83102;SHT31;72973;51.784;4.660;2024-01-30T06:13:44;10.83;79.07
83102;SHT31;72973;51.784;4.660;2024-01-30T06:16:18;10.83;78.94
83102;SHT31;72973;51.784;4.660;2024-01-30T06:19:07;10.80;79.00
83102;SHT31;72973;51.784;4.660;2024-01-30T06:21:42;10.83;79.21
83102;SHT31;72973;51.784;4.660;2024-01-30T06:24:14;10.81;79.10
83102;SHT31;72973;51.784;4.660;2024-01-30T06:26:41;10.85;78.99
83102;SHT31;72973;51.784;4.660;2024-01-30T06:29:08;10.85;79.10
83102;SHT31;72973;51.784;4.660;2024-01-30T06:31:42;10.85;79.07
83102;SHT31;72973;51.784;4.660;2024-01-30T06:34:09;10.94;78.93
83102;SHT31;72973;51.784;4.660;2024-01-30T06:36:40;10.97;79.01
83102;SHT31;72973;51.784;4.660;2024-01-30T06:39:07;11.00;78.98
83102;SHT31;72973;51.784;4.660;2024-01-30T06:41:33;10.96;78.95
83102;SHT31;72973;51.784;4.660;2024-01-30T06:44:03;11.06;78.89
83102;SHT31;72973;51.784;4.660;2024-01-30T06:46:32;11.04;78.81
83102;SHT31;72973;51.784;4.660;2024-01-30T06:48:58;11.06;79.01
83102;SHT31;72973;51.784;4.660;2024-01-30T06:51:25;11.11;78.77
83102;SHT31;72973;51.784;4.660;2024-01-30T06:53:51;11.11;78.91
83102;SHT31;72973;51.784;4.660;2024-01-30T06:56:18;11.19;78.79
83102;SHT31;72973;51.784;4.660;2024-01-30T06:58:56;11.29;78.46
83102;SHT31;72973;51.784;4.660;2024-01-30T07:01:34;11.36;78.54
83102;SHT31;72973;51.784;4.660;2024-01-30T07:04:03;11.39;78.10
83102;SHT31;72973;51.784;4.660;2024-01-30T07:06:30;11.40;78.26
83102;SHT31;72973;51.784;4.660;2024-01-30T07:08:57;11.40;78.35
83102;SHT31;72973;51.784;4.660;2024-01-30T07:11:23;11.38;78.43
83102;SHT31;72973;51.784;4.660;2024-01-30T07:13:51;11.36;78.54
83102;SHT31;72973;51.784;4.660;2024-01-30T07:16:17;11.46;78.37
83102;SHT31;72973;51.784;4.660;2024-01-30T07:18:44;11.45;78.27
83102;SHT31;72973;51.784;4.660;2024-01-30T07:21:11;11.49;78.58
83102;SHT31;72973;51.784;4.660;2024-01-30T07:23:37;11.52;78.51
83102;SHT31;72973;51.784;4.660;2024-01-30T07:26:05;11.49;78.63
83102;SHT31;72973;51.784;4.660;2024-01-30T07:28:39;11.59;78.55
83102;SHT31;72973;51.784;4.660;2024-01-30T07:31:05;11.63;78.45
83102;SHT31;72973;51.784;4.660;2024-01-30T07:33:32;11.69;78.52
83102;SHT31;72973;51.784;4.660;2024-01-30T07:35:58;11.73;78.36
83102;SHT31;72973;51.784;4.660;2024-01-30T07:38:25;11.69;78.63
83102;SHT31;72973;51.784;4.660;2024-01-30T07:40:55;11.79;78.44
83102;SHT31;72973;51.784;4.660;2024-01-30T07:43:22;11.82;78.31
83102;SHT31;72973;51.784;4.660;2024-01-30T07:45:49;11.89;78.28
83102;SHT31;72973;51.784;4.660;2024-01-30T07:48:15;11.90;78.14
83102;SHT31;72973;51.784;4.660;2024-01-30T07:50:41;11.93;78.36
83102;SHT31;72973;51.784;4.660;2024-01-30T07:53:08;11.93;78.08
83102;SHT31;72973;51.784;4.660;2024-01-30T07:55:35;12.00;78.05
83102;SHT31;72973;51.784;4.660;2024-01-30T07:58:04;11.95;77.97
83102;SHT31;72973;51.784;4.660;2024-01-30T08:00:31;11.98;78.00
83102;SHT31;72973;51.784;4.660;2024-01-30T08:03:00;12.07;77.76
83102;SHT31;72973;51.784;4.660;2024-01-30T08:05:26;12.05;77.89
83102;SHT31;72973;51.784;4.660;2024-01-30T08:07:52;12.07;77.96
83102;SHT31;72973;51.784;4.660;2024-01-30T08:10:19;12.08;77.98
83102;SHT31;72973;51.784;4.660;2024-01-30T08:12:46;12.08;77.89
83102;SHT31;72973;51.784;4.660;2024-01-30T08:15:13;12.18;77.84
83102;SHT31;72973;51.784;4.660;2024-01-30T08:17:39;12.23;77.60
83102;SHT31;72973;51.784;4.660;2024-01-30T08:20:06;12.32;77.36
83102;SHT31;72973;51.784;4.660;2024-01-30T08:22:34;12.38;77.19
83102;SHT31;72973;51.784;4.660;2024-01-30T08:25:01;12.32;77.32
83102;SHT31;72973;51.784;4.660;2024-01-30T08:27:27;12.40;77.12
83102;SHT31;72973;51.784;4.660;2024-01-30T08:29:54;12.44;77.07
83102;SHT31;72973;51.784;4.660;2024-01-30T08:32:23;12.46;76.88
83102;SHT31;72973;51.784;4.660;2024-01-30T08:34:50;12.53;76.90
83102;SHT31;72973;51.784;4.660;2024-01-30T08:37:16;12.53;76.93
83102;SHT31;72973;51.784;4.660;2024-01-30T08:39:43;12.59;76.80
83102;SHT31;72973;51.784;4.660;2024-01-30T08:42:10;12.51;76.96
83102;SHT31;72973;51.784;4.660;2024-01-30T08:44:37;12.59;76.90
83102;SHT31;72973;51.784;4.660;2024-01-30T08:47:05;12.69;76.60
83102;SHT31;72973;51.784;4.660;2024-01-30T08:49:31;12.68;76.63
83102;SHT31;72973;51.784;4.660;2024-01-30T08:51:58;12.66;76.64
83102;SHT31;72973;51.784;4.660;2024-01-30T08:54:24;12.62;76.81
83102;SHT31;72973;51.784;4.660;2024-01-30T08:56:51;12.65;76.83
83102;SHT31;72973;51.784;4.660;2024-01-30T08:59:19;12.63;76.84
83102;SHT31;72973;51.784;4.660;2024-01-30T09:01:45;12.63;76.96
83102;SHT31;72973;51.784;4.660;2024-01-30T09:04:13;12.65;76.87
83102;SHT31;72973;51.784;4.660;2024-01-30T09:06:39;12.69;76.74
83102;SHT31;72973;51.784;4.660;2024-01-30T09:09:09;12.70;76.66
83102;SHT31;72973;51.784;4.660;2024-01-30T09:11:35;12.72;76.61
83102;SHT31;72973;51.784;4.660;2024-01-30T09:14:02;12.76;76.51
83102;SHT31;72973;51.784;4.660;2024-01-30T09:16:29;12.76;76.44
83102;SHT31;72973;51.784;4.660;2024-01-30T09:18:55;12.78;76.39
83102;SHT31;72973;51.784;4.660;2024-01-30T09:21:22;12.70;76.54
83102;SHT31;72973;51.784;4.660;2024-01-30T09:23:49;12.69;76.52
83102;SHT31;72973;51.784;4.660;2024-01-30T09:26:18;12.72;76.58
83102;SHT31;72973;51.784;4.660;2024-01-30T09:28:44;12.78;76.48
83102;SHT31;72973;51.784;4.660;2024-01-30T09:31:12;12.72;76.50
83102;SHT31;72973;51.784;4.660;2024-01-30T09:33:38;12.70;76.53
83102;SHT31;72973;51.784;4.660;2024-01-30T09:36:05;12.68;76.62
83102;SHT31;72973;51.784;4.660;2024-01-30T09:38:32;12.72;76.46
83102;SHT31;72973;51.784;4.660;2024-01-30T09:41:03;12.76;76.43
83102;SHT31;72973;51.784;4.660;2024-01-30T09:43:33;12.83;76.15
83102;SHT31;72973;51.784;4.660;2024-01-30T09:46:02;13.00;75.86
83102;SHT31;72973;51.784;4.660;2024-01-30T09:48:30;12.99;75.72
83102;SHT31;72973;51.784;4.660;2024-01-30T09:50:57;12.99;75.75
83102;SHT31;72973;51.784;4.660;2024-01-30T09:53:25;12.86;76.00
83102;SHT31;72973;51.784;4.660;2024-01-30T09:55:52;12.88;76.00
83102;SHT31;72973;51.784;4.660;2024-01-30T09:58:18;12.88;76.08
83102;SHT31;72973;51.784;4.660;2024-01-30T10:00:44;12.97;75.86
83102;SHT31;72973;51.784;4.660;2024-01-30T10:03:13;12.99;75.68
83102;SHT31;72973;51.784;4.660;2024-01-30T10:05:41;13.07;75.26
83102;SHT31;72973;51.784;4.660;2024-01-30T10:08:10;12.97;75.36
83102;SHT31;72973;51.784;4.660;2024-01-30T10:10:37;13.02;75.19
83102;SHT31;72973;51.784;4.660;2024-01-30T10:13:03;12.96;75.26
83102;SHT31;72973;51.784;4.660;2024-01-30T10:15:30;12.90;75.40
83102;SHT31;72973;51.784;4.660;2024-01-30T10:17:57;12.85;75.29
83102;SHT31;72973;51.784;4.660;2024-01-30T10:20:24;12.83;75.31
83102;SHT31;72973;51.784;4.660;2024-01-30T10:22:51;12.82;75.00
83102;SHT31;72973;51.784;4.660;2024-01-30T10:25:18;12.73;74.95
83102;SHT31;72973;51.784;4.660;2024-01-30T10:27:45;12.65;74.96
83102;SHT31;72973;51.784;4.660;2024-01-30T10:30:12;12.68;74.72
83102;SHT31;72973;51.784;4.660;2024-01-30T10:32:38;12.62;74.96
83102;SHT31;72973;51.784;4.660;2024-01-30T10:35:05;12.52;75.07
83102;SHT31;72973;51.784;4.660;2024-01-30T10:37:31;12.46;75.00
83102;SHT31;72973;51.784;4.660;2024-01-30T10:40:02;12.48;75.31
83102;SHT31;72973;51.784;4.660;2024-01-30T10:42:32;12.32;75.38
83102;SHT31;72973;51.784;4.660;2024-01-30T10:45:10;12.27;75.09
83102;SHT31;72973;51.784;4.660;2024-01-30T10:47:41;12.16;74.73
83102;SHT31;72973;51.784;4.660;2024-01-30T10:50:09;12.05;73.92
83102;SHT31;72973;51.784;4.660;2024-01-30T10:52:39;11.95;73.46
83102;SHT31;72973;51.784;4.660;2024-01-30T10:55:06;11.83;73.24
83102;SHT31;72973;51.784;4.660;2024-01-30T10:57:34;11.66;73.41
83102;SHT31;72973;51.784;4.660;2024-01-30T11:00:09;11.62;73.90
83102;SHT31;72973;51.784;4.660;2024-01-30T11:02:41;11.58;73.82
83102;SHT31;72973;51.784;4.660;2024-01-30T11:05:09;11.61;73.56
83102;SHT31;72973;51.784;4.660;2024-01-30T11:07:36;11.58;73.24
83102;SHT31;72973;51.784;4.660;2024-01-30T11:10:03;11.67;73.04
83102;SHT31;72973;51.784;4.660;2024-01-30T11:12:31;11.72;72.65
83102;SHT31;72973;51.784;4.660;2024-01-30T11:20:14;12.08;71.93
83102;SHT31;72973;51.784;4.660;2024-01-30T11:22:45;12.13;71.92
83102;SHT31;72973;51.784;4.660;2024-01-30T11:25:13;11.93;72.51
83102;SHT31;72973;51.784;4.660;2024-01-30T11:27:41;11.76;73.15
83102;SHT31;72973;51.784;4.660;2024-01-30T11:30:21;11.59;73.75
83102;SHT31;72973;51.784;4.660;2024-01-30T11:33:27;11.59;73.93
83102;SHT31;72973;51.784;4.660;2024-01-30T11:35:54;11.58;74.00
83102;SHT31;72973;51.784;4.660;2024-01-30T11:38:21;11.49;74.12
83102;SHT31;72973;51.784;4.660;2024-01-30T11:40:48;11.24;75.48
83102;SHT31;72973;51.784;4.660;2024-01-30T11:43:16;11.08;75.91
83102;SHT31;72973;51.784;4.660;2024-01-30T11:45:44;10.96;75.98
83102;SHT31;72973;51.784;4.660;2024-01-30T11:48:14;10.73;76.91
83102;SHT31;72973;51.784;4.660;2024-01-30T11:50:41;10.60;77.18
83102;SHT31;72973;51.784;4.660;2024-01-30T11:53:10;10.66;76.78
83102;SHT31;72973;51.784;4.660;2024-01-30T11:55:36;10.56;76.98
83102;SHT31;72973;51.784;4.660;2024-01-30T11:58:06;10.46;77.14
83102;SHT31;72973;51.784;4.660;2024-01-30T12:00:33;10.45;77.09
83102;SHT31;72973;51.784;4.660;2024-01-30T12:02:59;10.49;76.62
83102;SHT31;72973;51.784;4.660;2024-01-30T12:05:28;10.50;76.54
83102;SHT31;72973;51.784;4.660;2024-01-30T12:07:55;10.61;76.03
83102;SHT31;72973;51.784;4.660;2024-01-30T12:10:25;10.52;76.20
83102;SHT31;72973;51.784;4.660;2024-01-30T12:12:53;10.52;76.05
83102;SHT31;72973;51.784;4.660;2024-01-30T12:15:22;10.46;75.94
83102;SHT31;72973;51.784;4.660;2024-01-30T12:17:49;10.43;76.07
83102;SHT31;72973;51.784;4.660;2024-01-30T12:20:18;10.52;75.91
83102;SHT31;72973;51.784;4.660;2024-01-30T12:22:47;10.56;75.60
83102;SHT31;72973;51.784;4.660;2024-01-30T12:25:16;10.50;75.78
83102;SHT31;72973;51.784;4.660;2024-01-30T12:27:48;10.31;75.84
83102;SHT31;72973;51.784;4.660;2024-01-30T12:30:19;10.56;75.30
83102;SHT31;72973;51.784;4.660;2024-01-30T12:32:49;10.57;75.15
83102;SHT31;72973;51.784;4.660;2024-01-30T12:35:18;10.73;74.85
83102;SHT31;72973;51.784;4.660;2024-01-30T12:37:47;10.81;74.26
83102;SHT31;72973;51.784;4.660;2024-01-30T12:40:15;10.84;74.36
83102;SHT31;72973;51.784;4.660;2024-01-30T12:42:42;10.73;74.86
83102;SHT31;72973;51.784;4.660;2024-01-30T12:45:09;10.63;75.17
83102;SHT31;72973;51.784;4.660;2024-01-30T12:47:36;10.50;75.99
83102;SHT31;72973;51.784;4.660;2024-01-30T12:50:02;10.63;75.68
83102;SHT31;72973;51.784;4.660;2024-01-30T12:52:29;10.55;75.94
83102;SHT31;72973;51.784;4.660;2024-01-30T12:54:56;10.67;75.58
83102;SHT31;72973;51.784;4.660;2024-01-30T12:57:22;10.56;75.59
83102;SHT31;72973;51.784;4.660;2024-01-30T12:59:49;10.61;75.24
83102;SHT31;72973;51.784;4.660;2024-01-30T13:02:16;10.70;74.94
83102;SHT31;72973;51.784;4.660;2024-01-30T13:04:43;10.61;74.18
83102;SHT31;72973;51.784;4.660;2024-01-30T13:07:12;10.73;74.01
83102;SHT31;72973;51.784;4.660;2024-01-30T13:09:39;10.63;74.10
83102;SHT31;72973;51.784;4.660;2024-01-30T13:12:05;10.79;73.83
83102;SHT31;72973;51.784;4.660;2024-01-30T13:14:33;10.73;73.85
83102;SHT31;72973;51.784;4.660;2024-01-30T13:16:59;10.63;74.16
83102;SHT31;72973;51.784;4.660;2024-01-30T13:19:26;10.49;74.90
83102;SHT31;72973;51.784;4.660;2024-01-30T13:21:53;10.55;75.10
83102;SHT31;72973;51.784;4.660;2024-01-30T13:24:19;10.59;74.83
83102;SHT31;72973;51.784;4.660;2024-01-30T13:26:47;10.50;75.16
83102;SHT31;72973;51.784;4.660;2024-01-30T13:29:15;10.42;75.62
83102;SHT31;72973;51.784;4.660;2024-01-30T13:31:41;10.38;75.95
83102;SHT31;72973;51.784;4.660;2024-01-30T13:34:08;10.41;75.95
83102;SHT31;72973;51.784;4.660;2024-01-30T13:36:35;10.43;76.14
83102;SHT31;72973;51.784;4.660;2024-01-30T13:39:02;10.28;76.79
83102;SHT31;72973;51.784;4.660;2024-01-30T13:41:29;10.21;77.20
83102;SHT31;72973;51.784;4.660;2024-01-30T13:43:56;10.19;77.64
83102;SHT31;72973;51.784;4.660;2024-01-30T13:46:25;10.15;78.26
83102;SHT31;72973;51.784;4.660;2024-01-30T13:48:52;10.05;79.01
83102;SHT31;72973;51.784;4.660;2024-01-30T13:51:18;9.95;79.66
83102;SHT31;72973;51.784;4.660;2024-01-30T13:53:48;9.94;79.80
83102;SHT31;72973;51.784;4.660;2024-01-30T13:56:16;9.94;79.76
83102;SHT31;72973;51.784;4.660;2024-01-30T13:58:43;9.91;79.94
83102;SHT31;72973;51.784;4.660;2024-01-30T14:01:09;9.95;79.93
83102;SHT31;72973;51.784;4.660;2024-01-30T14:03:41;9.99;79.73
83102;SHT31;72973;51.784;4.660;2024-01-30T14:06:20;10.02;79.69
83102;SHT31;72973;51.784;4.660;2024-01-30T14:08:46;9.90;80.11
83102;SHT31;72973;51.784;4.660;2024-01-30T14:11:13;9.97;80.27
83102;SHT31;72973;51.784;4.660;2024-01-30T14:13:39;9.91;80.32
83102;SHT31;72973;51.784;4.660;2024-01-30T14:16:06;9.90;80.76
83102;SHT31;72973;51.784;4.660;2024-01-30T14:18:33;9.97;80.39
83102;SHT31;72973;51.784;4.660;2024-01-30T14:21:00;9.99;80.56
83102;SHT31;72973;51.784;4.660;2024-01-30T14:23:26;9.98;80.83
83102;SHT31;72973;51.784;4.660;2024-01-30T14:25:56;10.02;80.66
83102;SHT31;72973;51.784;4.660;2024-01-30T14:28:23;9.95;80.84
83102;SHT31;72973;51.784;4.660;2024-01-30T14:30:49;10.01;80.91
83102;SHT31;72973;51.784;4.660;2024-01-30T14:33:15;10.16;80.55
83102;SHT31;72973;51.784;4.660;2024-01-30T14:35:45;10.06;80.55
83102;SHT31;72973;51.784;4.660;2024-01-30T14:38:11;10.09;80.99
83102;SHT31;72973;51.784;4.660;2024-01-30T14:40:39;10.12;80.75
83102;SHT31;72973;51.784;4.660;2024-01-30T14:43:05;10.04;80.84
83102;SHT31;72973;51.784;4.660;2024-01-30T14:45:32;9.97;81.02
83102;SHT31;72973;51.784;4.660;2024-01-30T14:47:59;9.94;81.00
83102;SHT31;72973;51.784;4.660;2024-01-30T14:50:26;9.90;81.21
83102;SHT31;72973;51.784;4.660;2024-01-30T14:52:57;9.85;81.72
83102;SHT31;72973;51.784;4.660;2024-01-30T14:55:23;9.78;82.70
83102;SHT31;72973;51.784;4.660;2024-01-30T14:57:50;9.78;83.11
83102;SHT31;72973;51.784;4.660;2024-01-30T15:00:17;9.69;83.04
83102;SHT31;72973;51.784;4.660;2024-01-30T15:02:44;9.67;83.54
83102;SHT31;72973;51.784;4.660;2024-01-30T15:05:13;9.58;83.38
83102;SHT31;72973;51.784;4.660;2024-01-30T15:07:39;9.57;83.22
83102;SHT31;72973;51.784;4.660;2024-01-30T15:10:07;9.53;83.50
83102;SHT31;72973;51.784;4.660;2024-01-30T15:12:35;9.51;83.55
83102;SHT31;72973;51.784;4.660;2024-01-30T15:15:02;9.43;83.37
83102;SHT31;72973;51.784;4.660;2024-01-30T15:17:29;9.37;83.29
83102;SHT31;72973;51.784;4.660;2024-01-30T15:19:55;9.33;83.09
83102;SHT31;72973;51.784;4.660;2024-01-30T15:22:22;9.36;83.07
83102;SHT31;72973;51.784;4.660;2024-01-30T15:24:48;9.36;83.07
83102;SHT31;72973;51.784;4.660;2024-01-30T15:27:15;9.40;82.87
83102;SHT31;72973;51.784;4.660;2024-01-30T15:29:42;9.40;83.13
83102;SHT31;72973;51.784;4.660;2024-01-30T15:32:11;9.37;83.26
83102;SHT31;72973;51.784;4.660;2024-01-30T15:34:37;9.33;83.72
83102;SHT31;72973;51.784;4.660;2024-01-30T15:37:04;9.27;84.22
83102;SHT31;72973;51.784;4.660;2024-01-30T15:39:31;9.30;84.37